Green Bay Weather Cam - Haven Way - Nearby METAR Reports  

Nearby METAR Reports

 

KGRB - Ashwaubenon, Wisconsin, USA
Distance from station: WNW 5mi, 9km
Updated: 12/09/2023 6:53pm
Overcast
Overcast
 Wind from SW
Wind: SW 9 mph , 15 km/h
Temperature: 37°F , 3°C
Wind Chill: 30°F , -1°C
Dew Point: 30°F , -1°C
Humidity: 75%
Barometer: 29.71 inHg , 1006.1 hPa
Clouds: Overcast
Visibility: 10 miles , 16 km
Cloud details: Partly cloudy 3100 ft
Mostly cloudy 6000 ft
Overcast 9000 ft
2023/12/10 00:53 KGRB 100053Z AUTO 23008KT 10SM SCT031 BKN060 OVC090 03/M01 A2971 RMK AO2 SLP068 T00331011
KOCQ - Oconto, Wisconsin, USA
Distance from station: N 27mi, 43km
Updated: 12/09/2023 6:35pm
Overcast
Overcast
 Wind from WSW
Wind: WSW 9 mph , 15 km/h, Gust: 17 mph , 28 km/h
Temperature: 37°F , 3°C
Wind Chill: 30°F , -1°C
Dew Point: 32°F , 0°C
Humidity: 81%
Barometer: 29.70 inHg , 1005.8 hPa
Clouds: Overcast
Visibility: 10 miles , 16 km
Cloud details: Mostly cloudy 4400 ft
Mostly cloudy 5000 ft
Overcast 7000 ft
2023/12/10 00:35 KOCQ 100035Z AUTO 24008G15KT 10SM BKN044 BKN050 OVC070 03/00 A2970 RMK AO1 T00250000
KATW - Appleton/Outagam, Wisconsin, USA
Distance from station: WSW 29mi, 47km
Updated: 12/09/2023 6:45pm
Mostly cloudy
Mostly cloudy
 Wind from WSW
Wind: WSW 10 mph , 17 km/h
Temperature: 37°F , 3°C
Wind Chill: 30°F , -1°C
Dew Point: 32°F , 0°C
Humidity: 81%
Barometer: 29.72 inHg , 1006.4 hPa
Clouds: Mostly cloudy
Visibility: 10 miles , 16 km
Cloud details: Partly cloudy 2100 ft
Mostly cloudy 3000 ft
2023/12/10 00:45 KATW 100045Z 25009KT 10SM SCT021 BKN030 03/00 A2972
 
KMTW - Manitowac Muni, Wisconsin, USA
Distance from station: SE 31mi, 49km
Updated: 12/09/2023 6:56pm
Overcast
Overcast
 Wind from SW
Wind: SW 10 mph , 17 km/h
Temperature: 39°F , 4°C
Wind Chill: 32°F , 0°C
Dew Point: 30°F , -1°C
Humidity: 70%
Barometer: 29.74 inHg , 1007.1 hPa
Clouds: Overcast
Visibility: 10 miles , 16 km
Cloud details: Overcast 4800 ft
2023/12/10 00:56 KMTW 100056Z AUTO 22009KT 10SM OVC048 04/M01 A2974 RMK AO2 SLP076 T00391011
KCLI - Clintonville, Wisconsin, USA
Distance from station: WNW 37mi, 59km
Updated: 12/09/2023 6:35pm
Overcast
Overcast
 Wind from SW
Wind: SW 12 mph , 19 km/h
Temperature: 36°F , 2°C
Wind Chill: 28°F , -2°C
Dew Point: 32°F , 0°C
Humidity: 87%
Barometer: 29.72 inHg , 1006.4 hPa
Clouds: Overcast
Visibility: 10 miles , 16 km
Cloud details: Mostly cloudy 1400 ft
Overcast 1900 ft
2023/12/10 00:35 KCLI 100035Z AUTO 23010KT 10SM BKN014 OVC019 02/00 A2972 RMK AO2 T00171003
KSUE - Sturgeon Bay, Wisconsin, USA
Distance from station: NE 39mi, 62km
Updated: 12/09/2023 6:56pm
Overcast
Overcast
 Wind from WSW
Wind: WSW 12 mph , 19 km/h
Temperature: 37°F , 3°C
Wind Chill: 29°F , -2°C
Dew Point: 30°F , -1°C
Humidity: 75%
Barometer: 29.70 inHg , 1005.8 hPa
Clouds: Overcast
Visibility: 10 miles , 16 km
Cloud details: Few Clouds 4800 ft
Overcast 6000 ft
2023/12/10 00:56 KSUE 100056Z AUTO 25010KT 10SM FEW048 OVC060 03/M01 A2970 RMK AO2 SLP063 T00281011
 
KOSH - Oshkosh, Wisconsin, USA
Distance from station: SW 44mi, 72km
Updated: 12/09/2023 6:53pm
Overcast
Overcast
 Wind from W
Wind: W 8 mph , 13 km/h
Temperature: 36°F , 2°C
Wind Chill: 30°F , -1°C
Dew Point: 30°F , -1°C
Humidity: 81%
Barometer: 29.74 inHg , 1007.1 hPa
Clouds: Overcast
Visibility: 10 miles , 16 km
Cloud details: Partly cloudy 1200 ft
Mostly cloudy 2000 ft
Overcast 2700 ft
2023/12/10 00:53 KOSH 100053Z 26007KT 10SM SCT012 BKN020 OVC027 02/M01 A2974 RMK AO2 SLP077 T00221006
KMNM - Menominee, Michigan, USA
Distance from station: NNE 48mi, 77km
Updated: 12/09/2023 6:57pm
Light rain, Overcast
Light rain, Overcast
 Wind from WSW
Wind: WSW 8 mph , 13 km/h
Temperature: 37°F , 3°C
Wind Chill: 31°F , -1°C
Dew Point: 28°F , -2°C
Humidity: 70%
Barometer: 29.69 inHg , 1005.4 hPa
Summary: Light rain
Clouds: Overcast
Visibility: 10 miles , 16 km
Cloud details: Mostly cloudy 3800 ft
Overcast 4400 ft
2023/12/10 00:57 KMNM 100057Z AUTO 25007KT 10SM -RA BKN038 OVC044 03/M02 A2969 RMK AO2 RAB53 SLP077 P0000 T00281017 $
KSBM - Sheboygan, Wisconsin, USA
Distance from station: S 49mi, 79km
Updated: 12/09/2023 6:53pm
Light rain, Overcast
Light rain, Overcast
 Wind from WSW
Wind: WSW 20 mph , 31 km/h, Gust: 29 mph , 46 km/h
Temperature: 37°F , 3°C
Wind Chill: 27°F , -3°C
Dew Point: 30°F , -1°C
Humidity: 75%
Barometer: 29.76 inHg , 1007.8 hPa
Summary: Light rain
Clouds: Overcast
Visibility: 9 miles , 14 km
Cloud details: Mostly cloudy 2500 ft
Overcast 3300 ft
2023/12/10 00:53 KSBM 100053Z AUTO 25017G25KT 9SM -RA BKN025 OVC033 03/M01 A2976 RMK AO2 RAB51 SLP081 P0000 T00331011 $
Weather Underground PWS KWIGREEN184 PWS United States Weather Group
USA Weather Finder Award